Petersburg, Illinois
Current Conditions -  °F | °C
As of 4:52 AM on Saturday 25 Oct 2014 (Local Time) from KSPI Reporting Station
Haze Haze  
Wind Chill: 53°   Ceiling: Unl
Heat Index: 53°   Visibility: 5mi
Dew Point: 50°   Wind: 5mph
Humidity: 89%   Direction: 270°W
Pressure: 29.97"   Gusts: NA
Location:  40.01°N, 89.85°W
Report Text: KSPI 250952Z AUTO 27004KT 5SM BR CLR 12/10 A2997 RMK AO2 SLP147 T01170100
Loading
Personal Weather Stations






























Interactive Weather Map New forecast layout! Learn more

10-Day Weather Forecast

Advertisements
Track Severe Weather on mobile